sensor_id;sensor_type;location;lat;lon;timestamp;P1;durP1;ratioP1;P2;durP2;ratioP2
10461;SDS011;5278;42.656;23.374;2024-03-02T00:00:14;27.07;;;17.17;;
10461;SDS011;5278;42.656;23.374;2024-03-02T00:02:41;28.93;;;17.20;;
10461;SDS011;5278;42.656;23.374;2024-03-02T00:05:09;24.03;;;16.23;;
10461;SDS011;5278;42.656;23.374;2024-03-02T00:07:37;29.37;;;18.63;;
10461;SDS011;5278;42.656;23.374;2024-03-02T00:10:07;28.30;;;18.37;;
10461;SDS011;5278;42.656;23.374;2024-03-02T00:12:36;28.10;;;18.57;;
10461;SDS011;5278;42.656;23.374;2024-03-02T00:15:04;29.13;;;18.27;;
10461;SDS011;5278;42.656;23.374;2024-03-02T00:17:33;33.60;;;18.87;;
10461;SDS011;5278;42.656;23.374;2024-03-02T00:19:59;26.00;;;17.07;;
10461;SDS011;5278;42.656;23.374;2024-03-02T00:22:30;25.50;;;17.20;;
10461;SDS011;5278;42.656;23.374;2024-03-02T00:24:56;25.53;;;17.17;;
10461;SDS011;5278;42.656;23.374;2024-03-02T00:27:24;26.03;;;17.20;;
10461;SDS011;5278;42.656;23.374;2024-03-02T00:29:51;25.93;;;16.17;;
10461;SDS011;5278;42.656;23.374;2024-03-02T00:32:17;24.60;;;15.77;;
10461;SDS011;5278;42.656;23.374;2024-03-02T00:34:44;30.87;;;17.90;;
10461;SDS011;5278;42.656;23.374;2024-03-02T00:37:11;24.70;;;15.87;;
10461;SDS011;5278;42.656;23.374;2024-03-02T00:39:39;25.17;;;15.83;;
10461;SDS011;5278;42.656;23.374;2024-03-02T00:42:06;26.10;;;17.00;;
10461;SDS011;5278;42.656;23.374;2024-03-02T00:44:33;27.00;;;16.20;;
10461;SDS011;5278;42.656;23.374;2024-03-02T00:47:02;26.57;;;15.83;;
10461;SDS011;5278;42.656;23.374;2024-03-02T00:49:29;23.00;;;14.93;;
10461;SDS011;5278;42.656;23.374;2024-03-02T00:51:55;26.03;;;15.17;;
10461;SDS011;5278;42.656;23.374;2024-03-02T00:54:23;26.90;;;15.03;;
10461;SDS011;5278;42.656;23.374;2024-03-02T00:56:53;20.73;;;14.20;;
10461;SDS011;5278;42.656;23.374;2024-03-02T00:59:20;23.40;;;15.23;;
10461;SDS011;5278;42.656;23.374;2024-03-02T01:01:47;27.47;;;15.07;;
10461;SDS011;5278;42.656;23.374;2024-03-02T01:04:14;24.17;;;14.30;;
10461;SDS011;5278;42.656;23.374;2024-03-02T01:06:41;25.27;;;15.33;;
10461;SDS011;5278;42.656;23.374;2024-03-02T01:09:08;21.37;;;14.20;;
10461;SDS011;5278;42.656;23.374;2024-03-02T01:11:37;24.40;;;15.30;;
10461;SDS011;5278;42.656;23.374;2024-03-02T01:14:06;23.07;;;14.67;;
10461;SDS011;5278;42.656;23.374;2024-03-02T01:16:32;24.97;;;15.17;;
10461;SDS011;5278;42.656;23.374;2024-03-02T01:18:59;22.53;;;15.23;;
10461;SDS011;5278;42.656;23.374;2024-03-02T01:21:26;24.43;;;14.47;;
10461;SDS011;5278;42.656;23.374;2024-03-02T01:23:52;22.93;;;15.03;;
10461;SDS011;5278;42.656;23.374;2024-03-02T01:26:19;23.83;;;15.60;;
10461;SDS011;5278;42.656;23.374;2024-03-02T01:28:46;23.80;;;15.43;;
10461;SDS011;5278;42.656;23.374;2024-03-02T01:31:14;25.63;;;15.27;;
10461;SDS011;5278;42.656;23.374;2024-03-02T01:33:41;23.57;;;14.57;;
10461;SDS011;5278;42.656;23.374;2024-03-02T01:36:07;20.40;;;13.73;;
10461;SDS011;5278;42.656;23.374;2024-03-02T01:38:34;21.47;;;13.77;;
10461;SDS011;5278;42.656;23.374;2024-03-02T01:41:01;23.10;;;13.67;;
10461;SDS011;5278;42.656;23.374;2024-03-02T01:43:28;20.73;;;13.57;;
10461;SDS011;5278;42.656;23.374;2024-03-02T01:45:55;21.07;;;12.90;;
10461;SDS011;5278;42.656;23.374;2024-03-02T01:48:23;21.27;;;14.27;;
10461;SDS011;5278;42.656;23.374;2024-03-02T01:50:49;22.63;;;14.10;;
10461;SDS011;5278;42.656;23.374;2024-03-02T01:53:16;19.23;;;13.37;;
10461;SDS011;5278;42.656;23.374;2024-03-02T01:55:44;25.27;;;13.93;;
10461;SDS011;5278;42.656;23.374;2024-03-02T01:58:11;18.47;;;12.40;;
10461;SDS011;5278;42.656;23.374;2024-03-02T02:00:37;25.30;;;15.67;;
10461;SDS011;5278;42.656;23.374;2024-03-02T02:03:04;22.43;;;14.40;;
10461;SDS011;5278;42.656;23.374;2024-03-02T02:05:33;27.20;;;17.07;;
10461;SDS011;5278;42.656;23.374;2024-03-02T02:08:00;26.40;;;17.07;;
10461;SDS011;5278;42.656;23.374;2024-03-02T02:10:27;29.53;;;17.40;;
10461;SDS011;5278;42.656;23.374;2024-03-02T02:12:54;29.93;;;16.77;;
10461;SDS011;5278;42.656;23.374;2024-03-02T02:15:21;29.10;;;17.40;;
10461;SDS011;5278;42.656;23.374;2024-03-02T02:17:52;27.90;;;17.67;;
10461;SDS011;5278;42.656;23.374;2024-03-02T02:20:18;30.87;;;18.40;;
10461;SDS011;5278;42.656;23.374;2024-03-02T02:22:56;31.10;;;18.67;;
10461;SDS011;5278;42.656;23.374;2024-03-02T02:25:24;27.97;;;18.23;;
10461;SDS011;5278;42.656;23.374;2024-03-02T02:27:51;31.57;;;19.47;;
10461;SDS011;5278;42.656;23.374;2024-03-02T02:30:21;30.57;;;19.10;;
10461;SDS011;5278;42.656;23.374;2024-03-02T02:32:49;25.50;;;14.93;;
10461;SDS011;5278;42.656;23.374;2024-03-02T02:35:15;25.47;;;15.27;;
10461;SDS011;5278;42.656;23.374;2024-03-02T02:37:43;23.73;;;15.40;;
10461;SDS011;5278;42.656;23.374;2024-03-02T02:40:12;23.00;;;16.20;;
10461;SDS011;5278;42.656;23.374;2024-03-02T02:42:40;19.40;;;15.30;;
10461;SDS011;5278;42.656;23.374;2024-03-02T02:45:07;19.93;;;14.07;;
10461;SDS011;5278;42.656;23.374;2024-03-02T02:47:34;22.13;;;14.73;;
10461;SDS011;5278;42.656;23.374;2024-03-02T02:50:01;23.20;;;16.03;;
10461;SDS011;5278;42.656;23.374;2024-03-02T02:52:32;22.07;;;16.67;;
10461;SDS011;5278;42.656;23.374;2024-03-02T02:55:01;22.40;;;16.17;;
10461;SDS011;5278;42.656;23.374;2024-03-02T02:57:30;27.73;;;17.73;;
10461;SDS011;5278;42.656;23.374;2024-03-02T03:00:01;21.80;;;15.60;;
10461;SDS011;5278;42.656;23.374;2024-03-02T03:02:35;20.50;;;15.10;;
10461;SDS011;5278;42.656;23.374;2024-03-02T03:05:02;24.83;;;16.37;;
10461;SDS011;5278;42.656;23.374;2024-03-02T03:07:29;27.33;;;17.17;;
10461;SDS011;5278;42.656;23.374;2024-03-02T03:09:56;24.17;;;16.17;;
10461;SDS011;5278;42.656;23.374;2024-03-02T03:12:23;26.73;;;17.43;;
10461;SDS011;5278;42.656;23.374;2024-03-02T03:14:51;34.50;;;19.20;;
10461;SDS011;5278;42.656;23.374;2024-03-02T03:17:18;29.83;;;18.73;;
10461;SDS011;5278;42.656;23.374;2024-03-02T03:19:45;27.77;;;17.53;;
10461;SDS011;5278;42.656;23.374;2024-03-02T03:22:12;25.80;;;16.63;;
10461;SDS011;5278;42.656;23.374;2024-03-02T03:24:39;26.03;;;16.70;;
10461;SDS011;5278;42.656;23.374;2024-03-02T03:27:05;29.03;;;17.97;;
10461;SDS011;5278;42.656;23.374;2024-03-02T03:29:32;28.70;;;17.50;;
10461;SDS011;5278;42.656;23.374;2024-03-02T03:32:01;27.40;;;17.80;;
10461;SDS011;5278;42.656;23.374;2024-03-02T03:34:28;28.77;;;18.27;;
10461;SDS011;5278;42.656;23.374;2024-03-02T03:36:55;28.47;;;17.93;;
10461;SDS011;5278;42.656;23.374;2024-03-02T03:39:21;35.77;;;18.03;;
10461;SDS011;5278;42.656;23.374;2024-03-02T03:41:48;29.63;;;18.53;;
10461;SDS011;5278;42.656;23.374;2024-03-02T03:44:15;27.43;;;18.17;;
10461;SDS011;5278;42.656;23.374;2024-03-02T03:46:41;28.67;;;18.10;;
10461;SDS011;5278;42.656;23.374;2024-03-02T03:49:09;30.97;;;18.33;;
10461;SDS011;5278;42.656;23.374;2024-03-02T03:51:36;27.07;;;17.73;;
10461;SDS011;5278;42.656;23.374;2024-03-02T03:54:03;24.63;;;17.00;;
10461;SDS011;5278;42.656;23.374;2024-03-02T03:56:30;29.50;;;17.23;;
10461;SDS011;5278;42.656;23.374;2024-03-02T03:58:56;26.83;;;17.50;;
10461;SDS011;5278;42.656;23.374;2024-03-02T04:01:24;27.23;;;17.90;;
10461;SDS011;5278;42.656;23.374;2024-03-02T04:03:51;27.03;;;16.33;;
10461;SDS011;5278;42.656;23.374;2024-03-02T04:06:19;28.67;;;17.50;;
10461;SDS011;5278;42.656;23.374;2024-03-02T04:08:46;32.47;;;17.87;;
10461;SDS011;5278;42.656;23.374;2024-03-02T04:11:13;24.63;;;16.53;;
10461;SDS011;5278;42.656;23.374;2024-03-02T04:13:40;29.10;;;17.97;;
10461;SDS011;5278;42.656;23.374;2024-03-02T04:16:06;28.60;;;18.20;;
10461;SDS011;5278;42.656;23.374;2024-03-02T04:18:33;30.70;;;17.47;;
10461;SDS011;5278;42.656;23.374;2024-03-02T04:21:00;26.77;;;17.33;;
10461;SDS011;5278;42.656;23.374;2024-03-02T04:23:28;26.57;;;15.77;;
10461;SDS011;5278;42.656;23.374;2024-03-02T04:25:54;27.27;;;17.30;;
10461;SDS011;5278;42.656;23.374;2024-03-02T04:28:21;27.83;;;17.93;;
10461;SDS011;5278;42.656;23.374;2024-03-02T04:30:48;32.20;;;17.87;;
10461;SDS011;5278;42.656;23.374;2024-03-02T04:33:14;22.67;;;16.07;;
10461;SDS011;5278;42.656;23.374;2024-03-02T04:35:41;29.13;;;17.87;;
10461;SDS011;5278;42.656;23.374;2024-03-02T04:38:08;30.03;;;17.90;;
10461;SDS011;5278;42.656;23.374;2024-03-02T04:40:36;26.43;;;17.13;;
10461;SDS011;5278;42.656;23.374;2024-03-02T04:43:02;26.90;;;16.43;;
10461;SDS011;5278;42.656;23.374;2024-03-02T04:45:29;30.30;;;17.83;;
10461;SDS011;5278;42.656;23.374;2024-03-02T04:47:56;27.83;;;17.00;;
10461;SDS011;5278;42.656;23.374;2024-03-02T04:50:23;26.40;;;16.80;;
10461;SDS011;5278;42.656;23.374;2024-03-02T04:52:49;28.50;;;16.63;;
10461;SDS011;5278;42.656;23.374;2024-03-02T04:55:16;30.77;;;17.83;;
10461;SDS011;5278;42.656;23.374;2024-03-02T04:57:55;32.03;;;18.73;;
10461;SDS011;5278;42.656;23.374;2024-03-02T05:00:22;27.07;;;16.63;;
10461;SDS011;5278;42.656;23.374;2024-03-02T05:02:49;28.13;;;15.70;;
10461;SDS011;5278;42.656;23.374;2024-03-02T05:05:16;25.57;;;16.60;;
10461;SDS011;5278;42.656;23.374;2024-03-02T05:07:43;27.50;;;17.07;;
10461;SDS011;5278;42.656;23.374;2024-03-02T05:10:09;27.93;;;16.70;;
10461;SDS011;5278;42.656;23.374;2024-03-02T05:12:37;26.17;;;16.67;;
10461;SDS011;5278;42.656;23.374;2024-03-02T05:15:23;27.33;;;16.83;;
10461;SDS011;5278;42.656;23.374;2024-03-02T05:17:48;26.63;;;16.43;;
10461;SDS011;5278;42.656;23.374;2024-03-02T05:20:15;25.43;;;16.27;;
10461;SDS011;5278;42.656;23.374;2024-03-02T05:22:42;22.30;;;15.83;;
10461;SDS011;5278;42.656;23.374;2024-03-02T05:25:08;25.73;;;16.53;;
10461;SDS011;5278;42.656;23.374;2024-03-02T05:27:35;28.37;;;16.83;;
10461;SDS011;5278;42.656;23.374;2024-03-02T05:30:02;26.20;;;16.60;;
10461;SDS011;5278;42.656;23.374;2024-03-02T05:32:32;24.87;;;15.53;;
10461;SDS011;5278;42.656;23.374;2024-03-02T05:34:59;26.63;;;16.60;;
10461;SDS011;5278;42.656;23.374;2024-03-02T05:37:26;26.57;;;16.47;;
10461;SDS011;5278;42.656;23.374;2024-03-02T05:39:53;26.40;;;17.20;;
10461;SDS011;5278;42.656;23.374;2024-03-02T05:42:20;28.17;;;18.30;;
10461;SDS011;5278;42.656;23.374;2024-03-02T05:44:46;32.83;;;18.60;;
10461;SDS011;5278;42.656;23.374;2024-03-02T05:47:13;32.70;;;19.10;;
10461;SDS011;5278;42.656;23.374;2024-03-02T05:49:41;29.03;;;18.73;;
10461;SDS011;5278;42.656;23.374;2024-03-02T05:52:09;30.97;;;18.43;;
10461;SDS011;5278;42.656;23.374;2024-03-02T05:54:35;33.30;;;19.27;;
10461;SDS011;5278;42.656;23.374;2024-03-02T05:57:02;38.37;;;23.47;;
10461;SDS011;5278;42.656;23.374;2024-03-02T05:59:47;29.17;;;19.73;;
10461;SDS011;5278;42.656;23.374;2024-03-02T06:02:13;30.23;;;19.00;;
10461;SDS011;5278;42.656;23.374;2024-03-02T06:04:42;31.03;;;18.80;;
10461;SDS011;5278;42.656;23.374;2024-03-02T06:07:09;31.47;;;19.03;;
10461;SDS011;5278;42.656;23.374;2024-03-02T06:09:35;39.27;;;21.13;;
10461;SDS011;5278;42.656;23.374;2024-03-02T06:12:03;37.57;;;21.93;;
10461;SDS011;5278;42.656;23.374;2024-03-02T06:14:30;36.40;;;21.77;;
10461;SDS011;5278;42.656;23.374;2024-03-02T06:16:56;32.77;;;20.27;;
10461;SDS011;5278;42.656;23.374;2024-03-02T06:19:24;36.27;;;20.40;;
10461;SDS011;5278;42.656;23.374;2024-03-02T06:21:52;31.63;;;19.97;;
10461;SDS011;5278;42.656;23.374;2024-03-02T06:24:19;61.13;;;32.03;;
10461;SDS011;5278;42.656;23.374;2024-03-02T06:26:46;30.40;;;19.90;;
10461;SDS011;5278;42.656;23.374;2024-03-02T06:29:12;37.80;;;22.77;;
10461;SDS011;5278;42.656;23.374;2024-03-02T06:31:39;33.40;;;19.67;;
10461;SDS011;5278;42.656;23.374;2024-03-02T06:34:05;35.77;;;20.90;;
10461;SDS011;5278;42.656;23.374;2024-03-02T06:36:33;32.63;;;19.53;;
10461;SDS011;5278;42.656;23.374;2024-03-02T06:39:01;36.43;;;21.50;;
10461;SDS011;5278;42.656;23.374;2024-03-02T06:41:28;39.30;;;22.50;;
10461;SDS011;5278;42.656;23.374;2024-03-02T06:43:56;40.63;;;24.17;;
10461;SDS011;5278;42.656;23.374;2024-03-02T06:46:24;43.43;;;21.77;;
10461;SDS011;5278;42.656;23.374;2024-03-02T06:48:51;32.57;;;19.67;;
10461;SDS011;5278;42.656;23.374;2024-03-02T06:51:18;30.13;;;19.00;;
10461;SDS011;5278;42.656;23.374;2024-03-02T06:53:44;36.83;;;21.50;;
10461;SDS011;5278;42.656;23.374;2024-03-02T06:56:13;30.30;;;18.70;;
10461;SDS011;5278;42.656;23.374;2024-03-02T06:58:39;35.33;;;20.53;;
10461;SDS011;5278;42.656;23.374;2024-03-02T07:01:08;34.00;;;19.87;;
10461;SDS011;5278;42.656;23.374;2024-03-02T07:03:35;33.17;;;19.63;;
10461;SDS011;5278;42.656;23.374;2024-03-02T07:06:04;31.13;;;17.97;;
10461;SDS011;5278;42.656;23.374;2024-03-02T07:08:31;29.23;;;18.20;;
10461;SDS011;5278;42.656;23.374;2024-03-02T07:10:57;31.77;;;17.37;;
10461;SDS011;5278;42.656;23.374;2024-03-02T07:13:25;29.77;;;19.10;;
10461;SDS011;5278;42.656;23.374;2024-03-02T07:15:53;28.23;;;18.37;;
10461;SDS011;5278;42.656;23.374;2024-03-02T07:18:47;32.83;;;19.13;;
10461;SDS011;5278;42.656;23.374;2024-03-02T07:21:16;35.17;;;19.67;;
10461;SDS011;5278;42.656;23.374;2024-03-02T07:23:43;33.57;;;19.40;;
10461;SDS011;5278;42.656;23.374;2024-03-02T07:26:10;32.07;;;19.43;;
10461;SDS011;5278;42.656;23.374;2024-03-02T07:28:38;32.17;;;18.70;;
10461;SDS011;5278;42.656;23.374;2024-03-02T07:31:05;34.63;;;19.63;;
10461;SDS011;5278;42.656;23.374;2024-03-02T07:33:32;36.57;;;20.87;;
10461;SDS011;5278;42.656;23.374;2024-03-02T07:35:59;32.83;;;18.97;;
10461;SDS011;5278;42.656;23.374;2024-03-02T07:38:27;31.47;;;18.47;;
10461;SDS011;5278;42.656;23.374;2024-03-02T07:40:54;32.30;;;20.17;;
10461;SDS011;5278;42.656;23.374;2024-03-02T07:43:21;32.80;;;20.13;;
10461;SDS011;5278;42.656;23.374;2024-03-02T07:45:49;33.07;;;20.00;;
10461;SDS011;5278;42.656;23.374;2024-03-02T07:48:16;34.93;;;19.87;;
10461;SDS011;5278;42.656;23.374;2024-03-02T07:50:43;35.47;;;19.20;;
10461;SDS011;5278;42.656;23.374;2024-03-02T07:53:09;36.83;;;22.00;;
10461;SDS011;5278;42.656;23.374;2024-03-02T07:55:36;37.97;;;21.10;;
10461;SDS011;5278;42.656;23.374;2024-03-02T07:58:03;36.43;;;22.17;;
10461;SDS011;5278;42.656;23.374;2024-03-02T08:00:30;32.93;;;21.03;;
10461;SDS011;5278;42.656;23.374;2024-03-02T08:02:58;34.40;;;20.30;;
10461;SDS011;5278;42.656;23.374;2024-03-02T08:05:25;35.93;;;20.80;;
10461;SDS011;5278;42.656;23.374;2024-03-02T08:07:52;71.80;;;35.80;;
10461;SDS011;5278;42.656;23.374;2024-03-02T08:10:19;38.93;;;21.57;;
10461;SDS011;5278;42.656;23.374;2024-03-02T08:12:46;41.57;;;25.50;;
10461;SDS011;5278;42.656;23.374;2024-03-02T08:15:13;51.80;;;27.77;;
10461;SDS011;5278;42.656;23.374;2024-03-02T08:17:39;97.97;;;48.10;;
10461;SDS011;5278;42.656;23.374;2024-03-02T08:20:11;33.93;;;20.03;;
10461;SDS011;5278;42.656;23.374;2024-03-02T08:22:38;35.13;;;19.80;;
10461;SDS011;5278;42.656;23.374;2024-03-02T08:25:06;30.37;;;18.30;;
10461;SDS011;5278;42.656;23.374;2024-03-02T08:27:34;29.43;;;18.60;;
10461;SDS011;5278;42.656;23.374;2024-03-02T08:30:01;32.57;;;18.47;;
10461;SDS011;5278;42.656;23.374;2024-03-02T08:32:31;30.07;;;17.90;;
10461;SDS011;5278;42.656;23.374;2024-03-02T08:34:58;31.80;;;18.93;;
10461;SDS011;5278;42.656;23.374;2024-03-02T08:37:26;29.37;;;17.90;;
10461;SDS011;5278;42.656;23.374;2024-03-02T08:39:52;30.70;;;17.93;;
10461;SDS011;5278;42.656;23.374;2024-03-02T08:42:19;30.77;;;18.40;;
10461;SDS011;5278;42.656;23.374;2024-03-02T08:44:46;33.03;;;19.33;;
10461;SDS011;5278;42.656;23.374;2024-03-02T08:47:13;29.70;;;18.07;;
10461;SDS011;5278;42.656;23.374;2024-03-02T08:49:39;38.43;;;20.23;;
10461;SDS011;5278;42.656;23.374;2024-03-02T08:52:06;33.40;;;19.27;;
10461;SDS011;5278;42.656;23.374;2024-03-02T08:54:34;36.37;;;21.23;;
10461;SDS011;5278;42.656;23.374;2024-03-02T08:57:01;30.43;;;18.73;;
10461;SDS011;5278;42.656;23.374;2024-03-02T08:59:28;32.43;;;18.20;;
10461;SDS011;5278;42.656;23.374;2024-03-02T09:01:55;36.53;;;19.57;;
10461;SDS011;5278;42.656;23.374;2024-03-02T09:04:22;25.93;;;16.50;;
10461;SDS011;5278;42.656;23.374;2024-03-02T09:06:48;27.37;;;18.53;;
10461;SDS011;5278;42.656;23.374;2024-03-02T09:09:15;26.37;;;16.97;;
10461;SDS011;5278;42.656;23.374;2024-03-02T09:11:43;34.50;;;19.87;;
10461;SDS011;5278;42.656;23.374;2024-03-02T09:14:11;26.97;;;15.37;;
10461;SDS011;5278;42.656;23.374;2024-03-02T09:16:40;24.07;;;15.33;;
10461;SDS011;5278;42.656;23.374;2024-03-02T09:19:06;21.40;;;14.07;;
10461;SDS011;5278;42.656;23.374;2024-03-02T09:21:35;22.10;;;15.33;;
10461;SDS011;5278;42.656;23.374;2024-03-02T09:24:02;27.50;;;17.20;;
10461;SDS011;5278;42.656;23.374;2024-03-02T09:26:29;31.33;;;19.70;;
10461;SDS011;5278;42.656;23.374;2024-03-02T09:28:57;26.27;;;17.77;;
10461;SDS011;5278;42.656;23.374;2024-03-02T09:31:23;18.37;;;13.27;;
10461;SDS011;5278;42.656;23.374;2024-03-02T09:33:50;18.63;;;12.07;;
10461;SDS011;5278;42.656;23.374;2024-03-02T09:36:17;19.63;;;12.13;;
10461;SDS011;5278;42.656;23.374;2024-03-02T09:38:44;21.67;;;15.17;;
10461;SDS011;5278;42.656;23.374;2024-03-02T09:41:11;26.00;;;15.77;;
10461;SDS011;5278;42.656;23.374;2024-03-02T09:43:38;22.83;;;16.20;;
10461;SDS011;5278;42.656;23.374;2024-03-02T09:46:07;29.13;;;19.27;;
10461;SDS011;5278;42.656;23.374;2024-03-02T09:48:35;32.57;;;19.20;;
10461;SDS011;5278;42.656;23.374;2024-03-02T09:51:02;32.07;;;20.27;;
10461;SDS011;5278;42.656;23.374;2024-03-02T09:53:31;27.27;;;16.90;;
10461;SDS011;5278;42.656;23.374;2024-03-02T09:55:59;25.57;;;16.30;;
10461;SDS011;5278;42.656;23.374;2024-03-02T09:58:27;26.77;;;17.13;;
10461;SDS011;5278;42.656;23.374;2024-03-02T10:00:53;29.10;;;16.50;;
10461;SDS011;5278;42.656;23.374;2024-03-02T10:03:21;30.17;;;18.43;;
10461;SDS011;5278;42.656;23.374;2024-03-02T10:05:49;38.37;;;22.17;;
10461;SDS011;5278;42.656;23.374;2024-03-02T10:08:16;35.37;;;20.80;;
10461;SDS011;5278;42.656;23.374;2024-03-02T10:10:42;30.17;;;17.43;;
10461;SDS011;5278;42.656;23.374;2024-03-02T10:13:09;27.23;;;17.90;;
10461;SDS011;5278;42.656;23.374;2024-03-02T10:15:38;27.43;;;17.30;;
10461;SDS011;5278;42.656;23.374;2024-03-02T10:18:08;25.73;;;17.90;;
10461;SDS011;5278;42.656;23.374;2024-03-02T10:20:38;25.27;;;17.67;;
10461;SDS011;5278;42.656;23.374;2024-03-02T10:23:12;26.83;;;17.20;;
10461;SDS011;5278;42.656;23.374;2024-03-02T10:25:39;26.73;;;17.07;;
10461;SDS011;5278;42.656;23.374;2024-03-02T10:28:06;28.20;;;18.53;;
10461;SDS011;5278;42.656;23.374;2024-03-02T10:30:33;27.73;;;18.20;;
10461;SDS011;5278;42.656;23.374;2024-03-02T10:33:01;25.67;;;15.97;;
10461;SDS011;5278;42.656;23.374;2024-03-02T10:35:28;25.90;;;15.07;;
10461;SDS011;5278;42.656;23.374;2024-03-02T10:37:57;31.47;;;21.03;;
10461;SDS011;5278;42.656;23.374;2024-03-02T10:40:26;30.37;;;17.83;;
10461;SDS011;5278;42.656;23.374;2024-03-02T10:42:53;27.70;;;17.83;;
10461;SDS011;5278;42.656;23.374;2024-03-02T10:45:21;22.33;;;15.77;;
10461;SDS011;5278;42.656;23.374;2024-03-02T10:47:50;26.50;;;16.43;;
10461;SDS011;5278;42.656;23.374;2024-03-02T10:50:17;20.73;;;13.57;;
10461;SDS011;5278;42.656;23.374;2024-03-02T10:52:43;20.63;;;12.97;;
10461;SDS011;5278;42.656;23.374;2024-03-02T10:55:12;20.27;;;13.93;;
10461;SDS011;5278;42.656;23.374;2024-03-02T10:57:45;21.40;;;13.67;;
10461;SDS011;5278;42.656;23.374;2024-03-02T11:00:17;21.53;;;13.40;;
10461;SDS011;5278;42.656;23.374;2024-03-02T11:02:50;19.27;;;13.23;;
10461;SDS011;5278;42.656;23.374;2024-03-02T11:05:26;22.07;;;13.73;;
10461;SDS011;5278;42.656;23.374;2024-03-02T11:07:57;19.60;;;12.60;;
10461;SDS011;5278;42.656;23.374;2024-03-02T11:10:30;21.17;;;13.57;;
10461;SDS011;5278;42.656;23.374;2024-03-02T11:13:02;18.93;;;12.17;;
10461;SDS011;5278;42.656;23.374;2024-03-02T11:15:32;19.50;;;12.87;;
10461;SDS011;5278;42.656;23.374;2024-03-02T11:18:00;21.43;;;14.13;;
10461;SDS011;5278;42.656;23.374;2024-03-02T11:20:30;19.37;;;13.13;;
10461;SDS011;5278;42.656;23.374;2024-03-02T11:22:57;21.13;;;13.33;;
10461;SDS011;5278;42.656;23.374;2024-03-02T11:25:31;19.87;;;14.27;;
10461;SDS011;5278;42.656;23.374;2024-03-02T11:27:59;20.77;;;14.23;;
10461;SDS011;5278;42.656;23.374;2024-03-02T11:33:18;19.53;;;11.97;;
10461;SDS011;5278;42.656;23.374;2024-03-02T11:35:50;17.40;;;11.63;;
10461;SDS011;5278;42.656;23.374;2024-03-02T11:38:17;16.40;;;11.67;;
10461;SDS011;5278;42.656;23.374;2024-03-02T11:40:45;21.03;;;12.83;;
10461;SDS011;5278;42.656;23.374;2024-03-02T11:43:12;20.53;;;12.13;;
10461;SDS011;5278;42.656;23.374;2024-03-02T11:45:41;18.40;;;12.97;;
10461;SDS011;5278;42.656;23.374;2024-03-02T11:48:13;19.43;;;13.30;;
10461;SDS011;5278;42.656;23.374;2024-03-02T11:50:41;18.87;;;12.37;;
10461;SDS011;5278;42.656;23.374;2024-03-02T11:53:09;17.43;;;11.53;;
10461;SDS011;5278;42.656;23.374;2024-03-02T11:55:38;18.93;;;12.37;;
10461;SDS011;5278;42.656;23.374;2024-03-02T11:58:07;16.37;;;11.93;;
10461;SDS011;5278;42.656;23.374;2024-03-02T12:00:34;19.90;;;12.37;;
10461;SDS011;5278;42.656;23.374;2024-03-02T12:03:01;16.83;;;11.53;;
10461;SDS011;5278;42.656;23.374;2024-03-02T12:05:29;16.03;;;10.93;;
10461;SDS011;5278;42.656;23.374;2024-03-02T12:07:57;18.47;;;11.40;;
10461;SDS011;5278;42.656;23.374;2024-03-02T12:10:24;18.43;;;11.57;;
10461;SDS011;5278;42.656;23.374;2024-03-02T12:12:57;16.77;;;10.37;;
10461;SDS011;5278;42.656;23.374;2024-03-02T12:15:26;13.73;;;9.63;;
10461;SDS011;5278;42.656;23.374;2024-03-02T12:17:54;13.73;;;9.37;;
10461;SDS011;5278;42.656;23.374;2024-03-02T12:20:21;12.67;;;9.70;;
10461;SDS011;5278;42.656;23.374;2024-03-02T12:22:49;14.83;;;9.77;;
10461;SDS011;5278;42.656;23.374;2024-03-02T12:25:17;14.23;;;10.13;;
10461;SDS011;5278;42.656;23.374;2024-03-02T12:27:44;15.10;;;11.10;;
10461;SDS011;5278;42.656;23.374;2024-03-02T12:30:12;14.60;;;11.10;;
10461;SDS011;5278;42.656;23.374;2024-03-02T12:32:40;16.90;;;10.23;;
10461;SDS011;5278;42.656;23.374;2024-03-02T12:35:07;20.40;;;12.80;;
10461;SDS011;5278;42.656;23.374;2024-03-02T12:37:42;16.60;;;10.90;;
10461;SDS011;5278;42.656;23.374;2024-03-02T12:40:10;15.70;;;11.13;;
10461;SDS011;5278;42.656;23.374;2024-03-02T12:42:37;12.73;;;9.40;;
10461;SDS011;5278;42.656;23.374;2024-03-02T12:45:04;15.17;;;9.80;;
10461;SDS011;5278;42.656;23.374;2024-03-02T12:47:32;13.50;;;9.77;;
10461;SDS011;5278;42.656;23.374;2024-03-02T12:50:00;15.57;;;9.93;;
10461;SDS011;5278;42.656;23.374;2024-03-02T12:52:28;13.87;;;9.50;;
10461;SDS011;5278;42.656;23.374;2024-03-02T12:54:55;13.13;;;9.00;;
10461;SDS011;5278;42.656;23.374;2024-03-02T12:57:25;11.87;;;8.77;;
10461;SDS011;5278;42.656;23.374;2024-03-02T12:59:52;13.63;;;9.97;;
10461;SDS011;5278;42.656;23.374;2024-03-02T13:02:22;11.73;;;9.10;;
10461;SDS011;5278;42.656;23.374;2024-03-02T13:04:52;14.77;;;10.37;;
10461;SDS011;5278;42.656;23.374;2024-03-02T13:07:21;14.70;;;9.93;;
10461;SDS011;5278;42.656;23.374;2024-03-02T13:09:48;12.60;;;9.17;;
10461;SDS011;5278;42.656;23.374;2024-03-02T13:12:15;14.90;;;10.53;;
10461;SDS011;5278;42.656;23.374;2024-03-02T13:14:42;14.83;;;10.70;;
10461;SDS011;5278;42.656;23.374;2024-03-02T13:17:09;15.10;;;11.20;;
10461;SDS011;5278;42.656;23.374;2024-03-02T13:19:36;14.40;;;10.77;;
10461;SDS011;5278;42.656;23.374;2024-03-02T13:22:03;15.63;;;11.00;;
10461;SDS011;5278;42.656;23.374;2024-03-02T13:24:33;12.20;;;8.73;;
10461;SDS011;5278;42.656;23.374;2024-03-02T13:27:00;16.53;;;11.17;;
10461;SDS011;5278;42.656;23.374;2024-03-02T13:29:29;13.57;;;9.93;;
10461;SDS011;5278;42.656;23.374;2024-03-02T13:31:55;13.93;;;10.03;;
10461;SDS011;5278;42.656;23.374;2024-03-02T13:34:22;14.03;;;10.83;;
10461;SDS011;5278;42.656;23.374;2024-03-02T13:36:49;13.37;;;9.70;;
10461;SDS011;5278;42.656;23.374;2024-03-02T13:39:16;14.50;;;9.73;;
10461;SDS011;5278;42.656;23.374;2024-03-02T13:41:44;12.77;;;9.87;;
10461;SDS011;5278;42.656;23.374;2024-03-02T13:44:17;15.10;;;10.10;;
10461;SDS011;5278;42.656;23.374;2024-03-02T13:46:44;15.27;;;10.37;;
10461;SDS011;5278;42.656;23.374;2024-03-02T13:49:11;13.43;;;9.63;;
10461;SDS011;5278;42.656;23.374;2024-03-02T13:51:37;15.03;;;11.00;;
10461;SDS011;5278;42.656;23.374;2024-03-02T13:54:04;15.00;;;10.73;;
10461;SDS011;5278;42.656;23.374;2024-03-02T13:56:31;13.53;;;10.53;;
10461;SDS011;5278;42.656;23.374;2024-03-02T13:58:59;14.63;;;10.40;;
10461;SDS011;5278;42.656;23.374;2024-03-02T14:01:26;16.20;;;11.30;;
10461;SDS011;5278;42.656;23.374;2024-03-02T14:03:53;16.77;;;10.77;;
10461;SDS011;5278;42.656;23.374;2024-03-02T14:06:20;15.07;;;10.60;;
10461;SDS011;5278;42.656;23.374;2024-03-02T14:08:47;15.43;;;10.97;;
10461;SDS011;5278;42.656;23.374;2024-03-02T14:11:14;16.10;;;11.70;;
10461;SDS011;5278;42.656;23.374;2024-03-02T14:13:41;15.37;;;11.60;;
10461;SDS011;5278;42.656;23.374;2024-03-02T14:16:11;16.13;;;10.80;;
10461;SDS011;5278;42.656;23.374;2024-03-02T14:18:37;17.07;;;12.03;;
10461;SDS011;5278;42.656;23.374;2024-03-02T14:21:04;17.47;;;11.47;;
10461;SDS011;5278;42.656;23.374;2024-03-02T14:23:31;16.60;;;11.73;;
10461;SDS011;5278;42.656;23.374;2024-03-02T14:25:58;16.23;;;11.30;;
10461;SDS011;5278;42.656;23.374;2024-03-02T14:28:24;16.77;;;11.53;;